createdAt,value
2023-05-06T00:02:05.935Z,96915.09
2023-05-06T00:06:07.334Z,96928.75
2023-05-06T00:10:09.293Z,96930.56
2023-05-06T00:14:12.445Z,96913.56
2023-05-06T00:18:12.679Z,96921.41
2023-05-06T00:22:13.057Z,96909.81
2023-05-06T00:26:13.656Z,96915.78
2023-05-06T00:30:17.296Z,96907.41
2023-05-06T00:34:17.542Z,96925.97
2023-05-06T00:38:19.760Z,96922.56
2023-05-06T00:42:22.756Z,96911.38
2023-05-06T00:46:25.795Z,96931.06
2023-05-06T00:50:28.468Z,96927.97
2023-05-06T00:54:30.045Z,96927.44
2023-05-06T00:58:30.827Z,96924.91
2023-05-06T01:02:45.861Z,96932.19
2023-05-06T01:06:59.188Z,96942.63
2023-05-06T01:11:05.263Z,96940.47
2023-05-06T01:15:11.933Z,96937.75
2023-05-06T01:19:42.017Z,96930.16
2023-05-06T01:24:01.097Z,96925.97
2023-05-06T01:28:01.438Z,96903.81
2023-05-06T01:32:15.309Z,96919.38
2023-05-06T01:36:26.168Z,96916.78
2023-05-06T01:40:31.746Z,96924.06
2023-05-06T01:44:39.421Z,96905.34
2023-05-06T01:48:41.955Z,96916.38
2023-05-06T01:52:42.436Z,96926.53
2023-05-06T01:56:45.472Z,96914.06
2023-05-06T02:00:46.241Z,96925.66
2023-05-06T02:04:47.020Z,96896.75
2023-05-06T02:08:47.377Z,96915.81
2023-05-06T02:12:54.848Z,96902.91
2023-05-06T02:16:56.367Z,96915.84
2023-05-06T02:20:56.670Z,96916.66
2023-05-06T02:24:56.926Z,96897.75
2023-05-06T02:29:00.646Z,96886.75
2023-05-06T02:33:01.145Z,96901.13
2023-05-06T02:37:01.655Z,96903.31
2023-05-06T02:41:01.979Z,96887.31
2023-05-06T02:45:05.239Z,96898.66
2023-05-06T02:49:05.920Z,96867.75
2023-05-06T02:53:06.114Z,96827.41
2023-05-06T02:57:06.523Z,96892.53
2023-05-06T03:01:09.521Z,96890.53
2023-05-06T03:05:12.105Z,96892.34
2023-05-06T03:09:12.688Z,96888.19
2023-05-06T03:13:16.250Z,96872.59
2023-05-06T03:17:19.457Z,96834.75
2023-05-06T03:21:20.278Z,96918.53
2023-05-06T03:25:22.737Z,96894.66
2023-05-06T03:29:23.410Z,96896.84
2023-05-06T03:33:27.326Z,96911.53
2023-05-06T03:37:27.824Z,96913.59
2023-05-06T03:41:30.327Z,96910.56
2023-05-06T03:45:31.123Z,96911.41
2023-05-06T03:49:36.528Z,96898.75
2023-05-06T03:53:37.348Z,96901.16
2023-05-06T03:57:38.495Z,96921.06
2023-05-06T04:01:40.151Z,96905.34
2023-05-06T04:05:43.396Z,96922.25
2023-05-06T04:09:46.125Z,96918.22
2023-05-06T04:13:46.531Z,96880.47
2023-05-06T04:17:50.644Z,96881.78
2023-05-06T04:21:53.977Z,96909.78
2023-05-06T04:25:54.977Z,96874.78
2023-05-06T04:29:57.855Z,96929.69
2023-05-06T04:33:59.322Z,96916.28
2023-05-06T04:38:02.527Z,96912.69
2023-05-06T04:42:04.412Z,96930.53
2023-05-06T04:46:12.154Z,96928.94
2023-05-06T04:50:15.537Z,96943.78
2023-05-06T04:54:18.743Z,96940.81
2023-05-06T04:58:19.886Z,96939.50
2023-05-06T05:02:21.405Z,96938.88
2023-05-06T05:06:21.790Z,96938.59
2023-05-06T05:10:25.104Z,96947.09
2023-05-06T05:14:25.868Z,96935.59
2023-05-06T05:18:26.391Z,96950.09
2023-05-06T05:22:30.905Z,96965.50
2023-05-06T05:26:33.845Z,96962.75
2023-05-06T05:30:34.224Z,96989.25
2023-05-06T05:34:34.975Z,96977.34
2023-05-06T05:38:35.819Z,96961.44
2023-05-06T05:42:39.868Z,96970.53
2023-05-06T05:46:46.867Z,96957.00
2023-05-06T05:50:50.888Z,96974.81
2023-05-06T05:54:51.942Z,96976.88
2023-05-06T05:58:56.118Z,96974.25
2023-05-06T06:02:57.638Z,96985.72
2023-05-06T06:07:02.119Z,96981.56
2023-05-06T06:11:05.998Z,96984.69
2023-05-06T06:15:15.080Z,96984.16
2023-05-06T06:19:18.212Z,96977.38
2023-05-06T06:23:19.219Z,96985.06
2023-05-06T06:27:19.553Z,96978.34
2023-05-06T06:31:22.796Z,96986.53
2023-05-06T06:35:23.786Z,96990.53
2023-05-06T06:39:24.816Z,96998.28
2023-05-06T06:43:25.192Z,96987.75
2023-05-06T06:47:36.578Z,97005.66
2023-05-06T06:51:36.827Z,97002.72
2023-05-06T06:55:37.830Z,97000.09
2023-05-06T06:59:38.214Z,96983.13
2023-05-06T07:03:41.153Z,96989.47
2023-05-06T07:07:41.326Z,96996.94
2023-05-06T07:11:41.557Z,96995.47
2023-05-06T07:15:41.897Z,96975.91
2023-05-06T07:19:44.840Z,97005.13
2023-05-06T07:23:45.137Z,96999.94
2023-05-06T07:27:45.438Z,97008.53
2023-05-06T07:31:45.924Z,97003.66
2023-05-06T07:35:51.826Z,96998.63
2023-05-06T07:39:52.158Z,97007.16
2023-05-06T07:43:52.515Z,96998.53
2023-05-06T07:47:53.114Z,97005.50
2023-05-06T07:51:58.422Z,97007.31
2023-05-06T07:56:02.495Z,96985.69
2023-05-06T08:00:04.527Z,97034.63
2023-05-06T08:04:20.046Z,97021.50
2023-05-06T08:08:30.485Z,97013.66
2023-05-06T08:12:30.958Z,97019.97
2023-05-06T08:16:35.849Z,97025.41
2023-05-06T08:20:36.520Z,97007.94
2023-05-06T08:24:43.801Z,97018.34
2023-05-06T08:28:44.577Z,97015.63
2023-05-06T08:32:50.956Z,97009.22
2023-05-06T08:36:52.279Z,97032.00
2023-05-06T08:41:14.948Z,97038.41
2023-05-06T08:45:16.030Z,97032.59
2023-05-06T08:49:16.515Z,97033.66
2023-05-06T08:53:17.296Z,97028.16
2023-05-06T08:57:20.951Z,97030.75
2023-05-06T09:01:21.372Z,97017.38
2023-05-06T09:05:21.914Z,97023.66
2023-05-06T09:09:22.190Z,97022.97
2023-05-06T09:13:24.960Z,97026.97
2023-05-06T09:17:28.303Z,97027.94
2023-05-06T09:21:36.319Z,97027.03
2023-05-06T09:25:36.709Z,97024.50
2023-05-06T09:29:39.527Z,97028.66
2023-05-06T09:33:39.950Z,97023.94
2023-05-06T09:37:40.206Z,97017.94
2023-05-06T09:41:40.673Z,97017.56
2023-05-06T09:45:45.151Z,97013.47
2023-05-06T09:49:46.005Z,97030.00
2023-05-06T09:53:48.281Z,97024.09
2023-05-06T09:57:49.583Z,96994.13
2023-05-06T10:01:53.945Z,97005.03
2023-05-06T10:05:57.425Z,97011.50
2023-05-06T10:10:01.285Z,97029.09
2023-05-06T10:14:03.317Z,97028.50
2023-05-06T10:18:10.371Z,97025.31
2023-05-06T10:22:22.497Z,97015.53
2023-05-06T10:26:25.735Z,97010.25
2023-05-06T10:30:27.794Z,97002.25
2023-05-06T10:34:38.556Z,96999.06
2023-05-06T10:38:45.089Z,96997.34
2023-05-06T10:42:45.588Z,96993.53
2023-05-06T10:47:05.833Z,96993.41
2023-05-06T10:51:28.764Z,96975.59
2023-05-06T10:55:32.587Z,96963.50
2023-05-06T10:59:32.983Z,96974.31
2023-05-06T11:03:36.111Z,96982.78
2023-05-06T11:07:39.461Z,96974.75
2023-05-06T11:12:04.078Z,96973.03
2023-05-06T11:16:07.881Z,96981.44
2023-05-06T11:20:25.606Z,96973.00
2023-05-06T11:24:31.127Z,96986.84
2023-05-06T11:28:32.579Z,96981.94
2023-05-06T11:32:33.338Z,96991.22
2023-05-06T11:36:33.739Z,96988.78
2023-05-06T11:40:36.821Z,96984.00
2023-05-06T11:44:42.316Z,96981.31
2023-05-06T11:48:42.630Z,96982.00
2023-05-06T11:52:43.137Z,96975.81
2023-05-06T11:56:56.408Z,96990.19
2023-05-06T12:00:59.039Z,96981.38
2023-05-06T12:05:00.100Z,96978.13
2023-05-06T12:09:01.655Z,96989.78
2023-05-06T12:13:05.167Z,96987.88
2023-05-06T12:17:06.190Z,96998.88
2023-05-06T12:21:07.604Z,96985.69
2023-05-06T12:25:18.003Z,96993.03
2023-05-06T12:29:21.386Z,96989.13
2023-05-06T12:33:22.126Z,96986.38
2023-05-06T12:37:32.029Z,96982.72
2023-05-06T12:41:42.254Z,96983.47
2023-05-06T12:45:46.564Z,96974.84
2023-05-06T12:49:55.021Z,96970.06
2023-05-06T12:53:55.442Z,96973.69
2023-05-06T12:57:57.881Z,96971.66
2023-05-06T13:02:01.354Z,96963.81
2023-05-06T13:06:01.777Z,96975.34
2023-05-06T13:10:03.360Z,96971.25
2023-05-06T13:14:03.999Z,96957.53
2023-05-06T13:18:07.969Z,96955.94
2023-05-06T13:22:08.656Z,96949.53
2023-05-06T13:26:08.994Z,96948.78
2023-05-06T13:30:11.787Z,96945.97
2023-05-06T13:34:15.054Z,96943.75
2023-05-06T13:38:15.238Z,96949.78
2023-05-06T13:42:15.676Z,96937.53
2023-05-06T13:46:16.438Z,96954.75
2023-05-06T13:50:19.659Z,96948.59
2023-05-06T13:54:20.089Z,96939.31
2023-05-06T13:58:20.393Z,96931.91
2023-05-06T14:02:20.711Z,96930.88
2023-05-06T14:06:23.653Z,96919.81
2023-05-06T14:10:24.877Z,96910.41
2023-05-06T14:14:25.162Z,96926.84
2023-05-06T14:18:26.570Z,96918.28
2023-05-06T14:22:30.900Z,96922.75
2023-05-06T14:26:31.134Z,96890.88
2023-05-06T14:30:32.793Z,96862.00
2023-05-06T14:34:33.632Z,96911.63
2023-05-06T14:38:36.558Z,96903.47
2023-05-06T14:42:36.995Z,96900.34
2023-05-06T14:46:37.196Z,96900.16
2023-05-06T14:50:37.911Z,96906.81
2023-05-06T14:54:42.794Z,96898.41
2023-05-06T14:58:43.193Z,96898.16
2023-05-06T15:02:43.565Z,96902.00
2023-05-06T15:06:43.821Z,96905.09
2023-05-06T15:10:46.788Z,96904.81
2023-05-06T15:14:47.113Z,96898.84
2023-05-06T15:18:47.993Z,96888.88
2023-05-06T15:22:48.247Z,96903.63
2023-05-06T15:26:51.132Z,96901.75
2023-05-06T15:30:51.677Z,96903.78
2023-05-06T15:34:51.853Z,96904.75
2023-05-06T15:39:03.544Z,96903.06
2023-05-06T15:43:08.633Z,96903.97
2023-05-06T15:47:09.287Z,96886.75
2023-05-06T15:51:09.880Z,96897.47
2023-05-06T15:55:13.467Z,96898.91
2023-05-06T15:59:16.747Z,96897.63
2023-05-06T16:03:17.038Z,96902.25
2023-05-06T16:07:17.476Z,96904.72
2023-05-06T16:11:17.967Z,96903.88
2023-05-06T16:15:22.702Z,96882.66
2023-05-06T16:19:23.273Z,96893.13
2023-05-06T16:23:24.253Z,96887.25
2023-05-06T16:27:24.623Z,96870.63
2023-05-06T16:31:27.517Z,96867.84
2023-05-06T16:35:28.142Z,96888.34
2023-05-06T16:39:28.543Z,96895.34
2023-05-06T16:43:29.485Z,96892.00
2023-05-06T16:47:32.462Z,96899.03
2023-05-06T16:51:33.589Z,96881.69
2023-05-06T16:55:33.965Z,96887.63
2023-05-06T16:59:34.427Z,96902.56
2023-05-06T17:03:38.021Z,96896.28
2023-05-06T17:07:40.156Z,96901.31
2023-05-06T17:11:40.536Z,96890.31
2023-05-06T17:15:41.051Z,96881.28
2023-05-06T17:19:44.055Z,96898.00
2023-05-06T17:23:44.453Z,96895.16
2023-05-06T17:27:45.109Z,96898.81
2023-05-06T17:31:46.075Z,96886.66
2023-05-06T17:35:49.088Z,96904.63
2023-05-06T17:39:49.782Z,96905.47
2023-05-06T17:43:51.328Z,96900.34
2023-05-06T17:47:51.755Z,96903.00
2023-05-06T17:51:56.158Z,96910.28
2023-05-06T17:55:56.608Z,96901.50
2023-05-06T17:59:56.999Z,96887.97
2023-05-06T18:03:57.662Z,96913.13
2023-05-06T18:08:00.767Z,96899.03
2023-05-06T18:12:01.241Z,96896.13
2023-05-06T18:16:01.543Z,96919.78
2023-05-06T18:20:01.927Z,96915.41
2023-05-06T18:24:15.244Z,96892.44
2023-05-06T18:28:17.328Z,96904.22
2023-05-06T18:32:17.715Z,96919.84
2023-05-06T18:36:18.445Z,96927.16
2023-05-06T18:40:21.754Z,96929.03
2023-05-06T18:44:22.148Z,96923.13
2023-05-06T18:48:22.478Z,96933.75
2023-05-06T18:52:23.050Z,96902.28
2023-05-06T18:56:25.905Z,96920.00
2023-05-06T19:00:26.460Z,96941.56
2023-05-06T19:04:28.542Z,96952.59
2023-05-06T19:08:30.099Z,96948.69
2023-05-06T19:12:34.616Z,96963.63
2023-05-06T19:16:35.335Z,96958.72
2023-05-06T19:20:37.452Z,96933.81
2023-05-06T19:24:41.096Z,96957.00
2023-05-06T19:28:44.475Z,96956.03
2023-05-06T19:32:45.246Z,96946.91
2023-05-06T19:36:45.812Z,96901.28
2023-05-06T19:40:47.097Z,96954.38
2023-05-06T19:44:50.796Z,96976.97
2023-05-06T19:48:51.174Z,96976.53
2023-05-06T19:52:51.572Z,96935.53
2023-05-06T19:56:51.982Z,96989.59
2023-05-06T20:00:55.019Z,96964.59
2023-05-06T20:04:55.361Z,96976.88
2023-05-06T20:08:55.755Z,96949.44
2023-05-06T20:12:57.768Z,96950.75
2023-05-06T20:17:02.688Z,96975.38
2023-05-06T20:21:02.988Z,96954.50
2023-05-06T20:25:12.506Z,96975.88
2023-05-06T20:29:13.029Z,96962.09
2023-05-06T20:33:16.185Z,96975.50
2023-05-06T20:37:16.458Z,96981.94
2023-05-06T20:41:16.786Z,96955.72
2023-05-06T20:45:17.193Z,96972.13
2023-05-06T20:49:20.080Z,96964.53
2023-05-06T20:53:20.475Z,96966.34
2023-05-06T20:57:21.125Z,96955.16
2023-05-06T21:01:23.000Z,96970.53
2023-05-06T21:05:26.207Z,96972.88
2023-05-06T21:09:26.904Z,96964.97
2023-05-06T21:13:27.441Z,96982.56
2023-05-06T21:17:27.979Z,96967.34
2023-05-06T21:21:33.539Z,96980.16
2023-05-06T21:25:34.053Z,96978.63
2023-05-06T21:29:34.345Z,96992.31
2023-05-06T21:33:34.703Z,96985.03
2023-05-06T21:37:38.441Z,96932.69
2023-05-06T21:41:39.144Z,96988.91
2023-05-06T21:45:39.578Z,96985.31
2023-05-06T21:49:39.898Z,96989.06
2023-05-06T21:53:42.697Z,96991.72
2023-05-06T21:57:44.517Z,96988.16
2023-05-06T22:01:45.743Z,96966.41
2023-05-06T22:05:46.079Z,96989.59
2023-05-06T22:09:48.954Z,96955.94
2023-05-06T22:13:49.246Z,96973.97
2023-05-06T22:17:49.494Z,96988.94
2023-05-06T22:21:49.754Z,97007.94
2023-05-06T22:25:52.679Z,97008.25
2023-05-06T22:29:52.838Z,97015.13
2023-05-06T22:33:55.721Z,97012.81
2023-05-06T22:37:55.963Z,97009.28
2023-05-06T22:41:58.826Z,97007.16
2023-05-06T22:45:59.027Z,96999.00
2023-05-06T22:49:59.299Z,97001.78
2023-05-06T22:53:59.472Z,97006.19
2023-05-06T22:58:02.261Z,97014.00
2023-05-06T23:02:02.481Z,97021.72
2023-05-06T23:06:04.132Z,97020.50
2023-05-06T23:10:04.401Z,97023.19
2023-05-06T23:14:08.470Z,97024.75
2023-05-06T23:18:08.889Z,97022.72
2023-05-06T23:22:09.228Z,97018.28
2023-05-06T23:26:09.797Z,96995.69
2023-05-06T23:30:15.116Z,97007.91
2023-05-06T23:34:15.342Z,97001.47
2023-05-06T23:38:15.805Z,97017.66
2023-05-06T23:42:16.138Z,97020.81
2023-05-06T23:46:19.091Z,97017.75
2023-05-06T23:50:19.540Z,97023.25
2023-05-06T23:54:19.787Z,97027.97
2023-05-06T23:58:20.130Z,97007.56
